Time;durP1;ratioP1;P1;durP2;ratioP2;P2;SDS_P1;SDS_P2;PMS_P1;PMS_P2;Temp;Humidity;BMP_temperature;BMP_pressure;BME280_temperature;BME280_humidity;BME280_pressure;Samples;Min_cycle;Max_cycle;Signal;HPM_P1;HPM_P2
2022/07/14 00:01:43;;;;;;;3.70;1.50;;;23.50;59.10;;;;;;5030753;28;20045;-61
2022/07/14 00:04:09;;;;;;;3.42;1.52;;;23.50;59.10;;;;;;4994466;28;20029;-61
2022/07/14 00:06:35;;;;;;;4.03;1.50;;;23.50;59.10;;;;;;5031500;28;20759;-63
2022/07/14 00:09:01;;;;;;;5.32;1.73;;;23.50;59.10;;;;;;5029912;28;20120;-60
2022/07/14 00:11:27;;;;;;;4.38;1.23;;;23.50;59.10;;;;;;5029055;28;20033;-61
2022/07/14 00:13:52;;;;;;;4.05;1.55;;;23.50;59.10;;;;;;5029973;28;20722;-62
2022/07/14 00:16:19;;;;;;;3.78;1.15;;;23.50;59.00;;;;;;5029818;28;20044;-62
2022/07/14 00:18:44;;;;;;;3.45;1.30;;;23.50;59.00;;;;;;5030592;28;20786;-61
2022/07/14 00:21:11;;;;;;;4.57;1.20;;;23.50;59.00;;;;;;5031414;28;20037;-61
2022/07/14 00:23:37;;;;;;;2.42;1.10;;;23.50;59.00;;;;;;5027722;28;20116;-61
2022/07/14 00:26:03;;;;;;;5.05;1.60;;;23.50;59.00;;;;;;5029666;28;20029;-63
2022/07/14 00:28:29;;;;;;;4.28;1.45;;;23.50;59.00;;;;;;5029868;28;20840;-63
2022/07/14 00:30:55;;;;;;;4.38;1.38;;;23.50;58.90;;;;;;5030633;28;20095;-61
2022/07/14 00:33:21;;;;;;;3.67;1.52;;;23.50;58.90;;;;;;5029802;28;20467;-60
2022/07/14 00:35:46;;;;;;;4.90;1.38;;;23.50;58.80;;;;;;5027695;28;20628;-61
2022/07/14 00:38:12;;;;;;;4.78;1.23;;;23.50;58.80;;;;;;5029131;28;21048;-62
2022/07/14 00:40:37;;;;;;;6.93;1.70;;;23.50;58.80;;;;;;5031419;28;20968;-62
2022/07/14 00:43:04;;;;;;;2.97;1.38;;;23.50;58.80;;;;;;5032586;28;20041;-62
2022/07/14 00:45:29;;;;;;;5.72;1.30;;;23.50;58.80;;;;;;5029681;28;20040;-61
2022/07/14 00:47:56;;;;;;;4.22;1.70;;;23.50;58.70;;;;;;5026433;28;20100;-61
2022/07/14 00:50:22;;;;;;;3.92;1.42;;;23.40;58.60;;;;;;5030155;28;20041;-61
2022/07/14 00:52:49;;;;;;;2.47;1.10;;;23.50;58.60;;;;;;5028821;28;20389;-62
2022/07/14 00:55:16;;;;;;;3.40;1.42;;;23.50;58.70;;;;;;5029664;28;20029;-62
2022/07/14 00:57:42;;;;;;;3.67;1.30;;;23.40;58.60;;;;;;5028450;28;20064;-62
2022/07/14 01:00:11;;;;;;;4.22;1.48;;;23.40;58.60;;;;;;5029639;28;20041;-62
2022/07/14 01:02:37;;;;;;;3.10;1.13;;;23.40;58.50;;;;;;4982174;28;20489;-63
2022/07/14 01:05:04;;;;;;;5.32;1.65;;;23.40;58.60;;;;;;5030803;28;20037;-61
2022/07/14 01:07:30;;;;;;;4.78;1.38;;;23.40;58.50;;;;;;5028490;28;20116;-63
2022/07/14 01:09:55;;;;;;;3.25;1.25;;;23.40;58.50;;;;;;5030744;28;20121;-61
2022/07/14 01:12:21;;;;;;;4.60;1.20;;;23.40;58.50;;;;;;5028885;28;20500;-61
2022/07/14 01:14:47;;;;;;;4.38;1.42;;;23.40;58.50;;;;;;5008263;28;20092;-61
2022/07/14 01:17:13;;;;;;;3.38;1.23;;;23.40;58.50;;;;;;5013854;28;20069;-62
2022/07/14 01:19:39;;;;;;;3.42;1.30;;;23.40;58.40;;;;;;5030744;28;20160;-61
2022/07/14 01:22:05;;;;;;;3.88;1.42;;;23.40;58.40;;;;;;5029411;28;20029;-62
2022/07/14 01:24:32;;;;;;;4.45;1.27;;;23.40;58.40;;;;;;5027617;28;20687;-61
2022/07/14 01:26:57;;;;;;;4.00;1.30;;;23.40;58.40;;;;;;5028281;28;20044;-61
2022/07/14 01:29:25;;;;;;;4.22;1.65;;;23.40;58.40;;;;;;5026702;28;20473;-61
2022/07/14 01:31:51;;;;;;;5.38;1.40;;;23.40;58.30;;;;;;5028862;28;20374;-60
2022/07/14 01:34:17;;;;;;;3.13;1.30;;;23.40;58.30;;;;;;5029855;28;20039;-61
2022/07/14 01:36:43;;;;;;;3.47;1.20;;;23.40;58.30;;;;;;5029616;28;20041;-61
2022/07/14 01:39:09;;;;;;;3.70;1.33;;;23.40;58.30;;;;;;5025587;28;20043;-62
2022/07/14 01:41:35;;;;;;;4.53;1.75;;;23.40;58.30;;;;;;5025459;28;20029;-61
2022/07/14 01:44:01;;;;;;;2.90;1.30;;;23.40;58.20;;;;;;5028484;28;20037;-61
2022/07/14 01:46:27;;;;;;;5.30;1.50;;;23.40;58.20;;;;;;5028537;28;20037;-63
2022/07/14 01:48:53;;;;;;;4.15;1.40;;;23.40;58.20;;;;;;5026798;28;20783;-63
2022/07/14 01:51:19;;;;;;;3.13;1.30;;;23.40;58.20;;;;;;5031184;28;20041;-62
2022/07/14 01:53:45;;;;;;;4.35;1.83;;;23.40;58.10;;;;;;5027931;28;20378;-61
2022/07/14 01:56:11;;;;;;;6.95;1.70;;;23.40;58.10;;;;;;5027149;28;20055;-61
2022/07/14 01:58:38;;;;;;;2.97;1.38;;;23.40;58.10;;;;;;5027571;28;20045;-61
2022/07/14 02:03:53;;;;;;;4.28;1.65;;;23.40;58.10;;;;;;5029370;28;20053;-62
2022/07/14 02:06:19;;;;;;;3.60;1.25;;;23.40;58.20;;;;;;5027070;28;20347;-61
2022/07/14 02:08:44;;;;;;;2.63;1.20;;;23.30;58.00;;;;;;5027181;28;20052;-62
2022/07/14 02:13:54;;;;;;;3.45;1.33;;;23.40;58.00;;;;;;5026969;28;20072;-62
2022/07/14 02:16:20;;;;;;;3.10;1.17;;;23.40;58.00;;;;;;5028724;28;20045;-62
2022/07/14 02:18:45;;;;;;;2.47;1.20;;;23.30;58.00;;;;;;5010536;28;20594;-61
2022/07/14 02:21:11;;;;;;;2.22;1.13;;;23.30;57.90;;;;;;5006978;28;20551;-61
2022/07/14 02:23:37;;;;;;;3.78;1.58;;;23.40;57.90;;;;;;5024863;28;20156;-62
2022/07/14 02:26:03;;;;;;;2.22;1.10;;;23.30;57.90;;;;;;5027184;28;20045;-61
2022/07/14 02:28:28;;;;;;;5.28;1.55;;;23.40;57.90;;;;;;5027290;28;20049;-61
2022/07/14 02:30:54;;;;;;;1.98;1.08;;;23.30;57.90;;;;;;5007046;28;20140;-61
2022/07/14 02:33:20;;;;;;;3.17;1.10;;;23.30;57.90;;;;;;5029915;28;20037;-62
2022/07/14 02:35:46;;;;;;;4.18;1.70;;;23.30;57.80;;;;;;5007457;28;20095;-62
2022/07/14 02:38:11;;;;;;;3.95;1.50;;;23.30;57.80;;;;;;5010311;28;20513;-61
2022/07/14 02:40:37;;;;;;;3.00;1.50;;;23.30;57.80;;;;;;5009140;28;20477;-61
2022/07/14 02:43:03;;;;;;;4.72;1.50;;;23.30;57.70;;;;;;5031344;28;20045;-61
2022/07/14 02:45:28;;;;;;;4.20;1.50;;;23.30;57.70;;;;;;5031933;28;20558;-62
2022/07/14 02:47:54;;;;;;;4.85;1.48;;;23.30;57.70;;;;;;5002410;28;20104;-62
2022/07/14 02:50:19;;;;;;;3.85;1.40;;;23.30;57.70;;;;;;4992341;28;20066;-61
2022/07/14 02:52:45;;;;;;;3.83;1.50;;;23.30;57.70;;;;;;5011580;28;20052;-61
2022/07/14 02:55:11;;;;;;;4.55;1.48;;;23.30;57.70;;;;;;5009093;28;20571;-61
2022/07/14 02:57:37;;;;;;;4.82;1.40;;;23.30;57.70;;;;;;5009080;28;20108;-61
2022/07/14 03:00:04;;;;;;;2.90;1.20;;;23.30;57.70;;;;;;5008855;28;21527;-61
2022/07/14 03:02:30;;;;;;;3.45;1.48;;;23.30;57.60;;;;;;5010312;28;20041;-62
2022/07/14 03:04:56;;;;;;;2.33;0.98;;;23.30;57.50;;;;;;5010324;28;20419;-61
2022/07/14 03:07:21;;;;;;;5.63;1.65;;;23.30;57.60;;;;;;5011498;28;20120;-61
2022/07/14 03:09:47;;;;;;;3.17;1.27;;;23.30;57.50;;;;;;4991203;28;20459;-61
2022/07/14 03:12:13;;;;;;;3.58;1.35;;;23.30;57.50;;;;;;5011976;28;20861;-61
2022/07/14 03:14:39;;;;;;;4.63;1.50;;;23.30;57.50;;;;;;4993953;28;20077;-61
2022/07/14 03:17:04;;;;;;;3.30;1.35;;;23.30;57.50;;;;;;5010311;28;20046;-61
2022/07/14 03:19:30;;;;;;;2.25;1.00;;;23.30;57.40;;;;;;5010714;28;20053;-61
2022/07/14 03:21:55;;;;;;;2.80;1.23;;;23.30;57.50;;;;;;4976738;28;20089;-61
2022/07/14 03:24:21;;;;;;;2.10;0.98;;;23.30;57.40;;;;;;5010585;28;20049;-61
2022/07/14 03:26:47;;;;;;;3.70;1.40;;;23.30;57.40;;;;;;5011875;28;20049;-61
2022/07/14 03:29:13;;;;;;;3.47;1.15;;;23.30;57.30;;;;;;5012405;28;20041;-60
2022/07/14 03:31:39;;;;;;;3.58;1.30;;;23.30;57.40;;;;;;5011147;28;20046;-63
2022/07/14 03:34:05;;;;;;;2.55;1.10;;;23.30;57.30;;;;;;5011819;28;20540;-63
2022/07/14 03:36:31;;;;;;;4.95;1.92;;;23.30;57.30;;;;;;5009776;28;20737;-61
2022/07/14 03:38:57;;;;;;;2.42;1.10;;;23.30;57.30;;;;;;5011531;28;20138;-63
2022/07/14 03:41:22;;;;;;;3.47;1.27;;;23.30;57.30;;;;;;5009684;28;20929;-61
2022/07/14 03:43:48;;;;;;;4.70;1.40;;;23.30;57.20;;;;;;5008108;28;20057;-61
2022/07/14 03:46:14;;;;;;;3.38;1.40;;;23.30;57.10;;;;;;5006024;28;20048;-62
2022/07/14 03:48:40;;;;;;;2.72;1.20;;;23.30;57.20;;;;;;5030434;28;20057;-61
2022/07/14 03:51:06;;;;;;;3.83;1.67;;;23.30;57.10;;;;;;5033306;28;20029;-61
2022/07/14 03:53:32;;;;;;;2.45;1.40;;;23.30;57.10;;;;;;5012604;28;20552;-62
2022/07/14 03:55:58;;;;;;;3.90;1.20;;;23.30;57.10;;;;;;5027229;28;20041;-61
2022/07/14 03:58:24;;;;;;;1.45;1.10;;;23.30;57.10;;;;;;5028722;28;20041;-61
2022/07/14 04:00:50;;;;;;;2.72;1.20;;;23.30;57.00;;;;;;5031704;28;20306;-61
2022/07/14 04:03:16;;;;;;;3.40;1.15;;;23.20;57.00;;;;;;5029604;28;20076;-61
2022/07/14 04:05:42;;;;;;;2.13;1.20;;;23.30;57.00;;;;;;5027995;28;20068;-61
2022/07/14 04:08:09;;;;;;;2.08;1.00;;;23.20;56.90;;;;;;5012420;28;20037;-61
2022/07/14 04:10:34;;;;;;;4.53;1.40;;;23.20;56.90;;;;;;5028656;28;20057;-61
2022/07/14 04:13:00;;;;;;;2.33;1.23;;;23.20;56.90;;;;;;5029058;28;20042;-61
2022/07/14 04:15:28;;;;;;;3.03;1.27;;;23.20;56.90;;;;;;5027965;28;20069;-61
2022/07/14 04:17:54;;;;;;;2.78;1.20;;;23.20;56.90;;;;;;5013090;28;20042;-61
2022/07/14 04:20:21;;;;;;;2.80;1.60;;;23.20;56.90;;;;;;5033224;28;20360;-62
2022/07/14 04:22:47;;;;;;;3.13;1.30;;;23.20;56.90;;;;;;5028747;28;20056;-61
2022/07/14 04:25:13;;;;;;;4.10;1.30;;;23.20;56.90;;;;;;5011736;28;20425;-61
2022/07/14 04:27:40;;;;;;;5.00;1.30;;;23.20;56.90;;;;;;5013656;28;20037;-61
2022/07/14 04:30:10;;;;;;;4.97;1.65;;;23.20;56.90;;;;;;5030199;28;20107;-61
2022/07/14 04:32:35;;;;;;;2.58;1.10;;;23.20;56.90;;;;;;5028231;28;20037;-59
2022/07/14 04:35:02;;;;;;;2.17;1.10;;;23.20;56.90;;;;;;5030566;28;20029;-59
2022/07/14 04:37:27;;;;;;;3.13;1.02;;;23.20;56.80;;;;;;5010680;28;20124;-61
2022/07/14 04:39:54;;;;;;;4.38;1.50;;;23.20;56.70;;;;;;5013393;28;20096;-63
2022/07/14 04:42:21;;;;;;;3.00;1.35;;;23.20;56.70;;;;;;5028942;28;20056;-61
2022/07/14 04:44:47;;;;;;;1.60;0.90;;;23.20;56.70;;;;;;5030163;28;20045;-60
2022/07/14 04:47:12;;;;;;;3.42;1.48;;;23.20;56.70;;;;;;5027897;28;20060;-60
2022/07/14 04:52:23;;;;;;;2.42;1.10;;;23.20;57.40;;;;;;5026091;28;20128;-61
2022/07/14 04:54:49;;;;;;;3.70;1.00;;;23.20;56.70;;;;;;5027363;28;20110;-61
2022/07/14 04:57:14;;;;;;;2.92;1.08;;;23.20;56.70;;;;;;5025418;28;20473;-65
2022/07/14 04:59:40;;;;;;;2.47;1.33;;;23.20;56.70;;;;;;5025593;28;20053;-61
2022/07/14 05:02:06;;;;;;;2.47;1.13;;;23.20;56.60;;;;;;5005755;28;20041;-62
2022/07/14 05:04:32;;;;;;;2.35;1.20;;;23.20;56.70;;;;;;5029308;28;20940;-61
2022/07/14 05:06:57;;;;;;;2.90;1.27;;;23.20;56.70;;;;;;5026360;28;20156;-61
2022/07/14 05:09:25;;;;;;;3.58;1.30;;;23.20;56.70;;;;;;5029559;28;20049;-62
2022/07/14 05:11:52;;;;;;;3.38;1.20;;;23.20;56.70;;;;;;5028434;28;20371;-62
2022/07/14 05:14:18;;;;;;;2.35;1.20;;;23.20;56.70;;;;;;5028338;28;20073;-61
2022/07/14 05:16:48;;;;;;;3.40;1.20;;;23.20;56.80;;;;;;5029812;28;20094;-62
2022/07/14 05:19:15;;;;;;;3.08;1.27;;;23.20;56.70;;;;;;5029211;28;20064;-62
2022/07/14 05:21:41;;;;;;;3.90;1.52;;;23.20;56.70;;;;;;5028900;28;20087;-62
2022/07/14 05:24:06;;;;;;;3.65;1.20;;;23.20;56.70;;;;;;4996108;28;20477;-62
2022/07/14 05:26:32;;;;;;;2.95;1.40;;;23.20;56.70;;;;;;5027280;28;20037;-62
2022/07/14 05:28:58;;;;;;;2.60;1.13;;;23.20;56.70;;;;;;5031004;28;20033;-62
2022/07/14 05:31:23;;;;;;;2.88;1.40;;;23.20;56.70;;;;;;5030334;28;20092;-62
2022/07/14 05:33:49;;;;;;;2.90;1.13;;;23.20;56.70;;;;;;5030251;28;20040;-61
2022/07/14 05:36:15;;;;;;;4.18;1.25;;;23.20;56.70;;;;;;5024606;28;20131;-62
2022/07/14 05:38:41;;;;;;;3.55;1.30;;;23.20;56.70;;;;;;5024335;28;20060;-61
2022/07/14 05:41:07;;;;;;;3.30;1.30;;;23.10;56.70;;;;;;5024057;28;20055;-62
2022/07/14 05:43:32;;;;;;;3.17;1.10;;;23.20;56.80;;;;;;5026456;28;20041;-61
2022/07/14 05:46:09;;;;;;;2.92;1.20;;;23.20;56.80;;;;;;5029755;28;20029;-62
2022/07/14 05:48:37;;;;;;;2.33;1.02;;;23.20;56.80;;;;;;5007269;28;20706;-61
2022/07/14 05:51:11;;;;;;;3.03;1.20;;;23.20;56.90;;;;;;5009130;28;20033;-61
2022/07/14 05:53:38;;;;;;;3.92;1.10;;;23.20;57.30;;;;;;5025649;28;20041;-61
2022/07/14 05:56:05;;;;;;;1.63;1.00;;;23.10;56.80;;;;;;5013779;28;20559;-61
2022/07/14 05:58:31;;;;;;;3.28;1.42;;;23.20;56.90;;;;;;5006724;28;20048;-62
2022/07/14 06:00:57;;;;;;;4.05;1.17;;;23.20;57.00;;;;;;5028699;28;20043;-61
2022/07/14 06:03:23;;;;;;;3.88;1.02;;;23.20;57.10;;;;;;5026380;28;20037;-62
2022/07/14 06:05:49;;;;;;;2.50;1.08;;;23.20;57.30;;;;;;5006778;28;20041;-61
2022/07/14 06:08:15;;;;;;;5.15;1.30;;;23.20;57.50;;;;;;5026644;28;20041;-62
2022/07/14 06:10:41;;;;;;;3.00;1.10;;;23.20;57.50;;;;;;5026955;28;20483;-61
2022/07/14 06:13:06;;;;;;;2.53;1.30;;;23.20;57.40;;;;;;5010753;28;20053;-62
2022/07/14 06:15:32;;;;;;;5.07;1.45;;;23.30;57.50;;;;;;5011751;28;20193;-61
2022/07/14 06:17:58;;;;;;;2.25;1.20;;;23.30;57.60;;;;;;5032044;28;20112;-63
2022/07/14 06:20:23;;;;;;;3.75;1.10;;;23.30;57.60;;;;;;5033013;28;20969;-62
2022/07/14 06:22:49;;;;;;;3.33;1.05;;;23.30;57.70;;;;;;5031071;28;20505;-62
2022/07/14 06:25:15;;;;;;;3.20;1.10;;;23.30;58.10;;;;;;5033445;28;20037;-61
2022/07/14 06:27:41;;;;;;;4.45;1.13;;;23.30;58.50;;;;;;5030664;28;20095;-62
2022/07/14 06:30:08;;;;;;;3.70;1.20;;;23.30;58.80;;;;;;5033152;28;20562;-62
2022/07/14 06:32:39;;;;;;;2.42;1.17;;;23.30;58.80;;;;;;5033579;28;20056;-61
2022/07/14 06:35:05;;;;;;;2.65;1.00;;;23.30;58.90;;;;;;5031105;28;20038;-62
2022/07/14 06:37:33;;;;;;;2.08;1.13;;;23.30;58.80;;;;;;5001053;28;20269;-61
2022/07/14 06:40:03;;;;;;;1.35;0.90;;;23.40;58.90;;;;;;5031040;28;20090;-62
2022/07/14 06:42:29;;;;;;;3.25;1.10;;;23.40;58.90;;;;;;5030146;28;20041;-61
2022/07/14 06:44:54;;;;;;;5.85;1.40;;;23.30;58.80;;;;;;5033894;28;20041;-61
2022/07/14 06:47:20;;;;;;;4.82;1.10;;;23.30;58.70;;;;;;5013268;28;20632;-61
2022/07/14 06:49:46;;;;;;;3.05;0.98;;;23.30;58.70;;;;;;5030273;28;20478;-61
2022/07/14 06:52:11;;;;;;;4.57;1.23;;;23.30;58.70;;;;;;5034173;28;20473;-61
2022/07/14 06:54:38;;;;;;;4.55;1.30;;;23.40;58.80;;;;;;5033243;28;20077;-60
2022/07/14 06:57:04;;;;;;;5.25;1.02;;;23.40;58.80;;;;;;5030689;28;20135;-61
2022/07/14 06:59:30;;;;;;;4.82;1.10;;;23.40;58.70;;;;;;5033113;28;20049;-61
2022/07/14 07:01:56;;;;;;;6.18;1.33;;;23.40;58.80;;;;;;5030780;28;20047;-61
2022/07/14 07:04:23;;;;;;;4.40;1.10;;;23.40;58.80;;;;;;5031549;28;20041;-61
2022/07/14 07:06:50;;;;;;;2.78;1.27;;;23.40;58.70;;;;;;5031905;28;20045;-61
2022/07/14 07:09:18;;;;;;;7.55;1.70;;;23.40;58.70;;;;;;5034104;28;20037;-60
2022/07/14 07:11:45;;;;;;;7.25;1.13;;;23.40;59.20;;;;;;5028054;28;20045;-61
2022/07/14 07:14:11;;;;;;;10.18;1.48;;;23.40;59.30;;;;;;5013410;28;20037;-60
2022/07/14 07:16:37;;;;;;;5.82;1.55;;;23.40;59.10;;;;;;5033742;28;20069;-61
2022/07/14 07:19:03;;;;;;;3.60;1.30;;;23.40;59.10;;;;;;5029726;28;20056;-61
2022/07/14 07:21:29;;;;;;;5.95;1.00;;;23.40;59.00;;;;;;5032509;28;20040;-60
2022/07/14 07:23:55;;;;;;;2.83;1.00;;;23.40;58.90;;;;;;5029674;28;20052;-61
2022/07/14 07:26:24;;;;;;;4.50;1.10;;;23.40;58.90;;;;;;5029797;28;20797;-61
2022/07/14 07:28:52;;;;;;;5.65;1.42;;;23.40;58.80;;;;;;5028918;28;21311;-60
2022/07/14 07:31:18;;;;;;;2.50;1.08;;;23.40;58.80;;;;;;5029653;28;20061;-61
2022/07/14 07:33:44;;;;;;;6.30;1.45;;;23.40;58.90;;;;;;5012189;28;20489;-60
2022/07/14 07:36:09;;;;;;;3.65;1.20;;;23.40;58.80;;;;;;5027521;28;20043;-61
2022/07/14 07:38:35;;;;;;;5.28;1.10;;;23.40;58.80;;;;;;5010804;28;20061;-61
2022/07/14 07:41:02;;;;;;;3.70;1.17;;;23.40;58.70;;;;;;5030108;28;20071;-63
2022/07/14 07:43:28;;;;;;;4.82;1.20;;;23.40;58.80;;;;;;5028277;28;20440;-63
2022/07/14 07:45:53;;;;;;;8.00;1.35;;;23.40;58.80;;;;;;5031817;28;20038;-63
2022/07/14 07:48:19;;;;;;;3.85;1.10;;;23.40;58.80;;;;;;5006671;28;20564;-61
2022/07/14 07:50:45;;;;;;;7.85;1.27;;;23.40;58.80;;;;;;5030943;28;20548;-61
2022/07/14 07:53:12;;;;;;;6.68;1.85;;;23.40;58.70;;;;;;5029155;28;20135;-62
2022/07/14 07:55:38;;;;;;;4.70;1.45;;;23.40;58.70;;;;;;5011369;28;20712;-62
2022/07/14 07:58:05;;;;;;;4.90;1.60;;;23.40;58.60;;;;;;5028762;28;20144;-62
2022/07/14 08:00:30;;;;;;;7.93;2.05;;;23.40;58.70;;;;;;5030700;28;20116;-61
2022/07/14 08:02:57;;;;;;;6.20;1.60;;;23.40;58.60;;;;;;5029523;28;20833;-62
2022/07/14 08:05:28;;;;;;;4.40;1.55;;;23.40;58.60;;;;;;4999554;28;20034;-62
2022/07/14 08:07:54;;;;;;;;;;;23.40;58.70;;;;;;5031235;28;20374;-62
2022/07/14 08:10:20;;;;;;;4.65;1.88;;;23.40;58.60;;;;;;5031401;28;19929;-62
2022/07/14 08:12:46;;;;;;;5.20;1.60;;;23.40;58.50;;;;;;5027386;28;20037;-62
2022/07/14 08:15:13;;;;;;;5.00;1.50;;;23.40;58.60;;;;;;5010239;28;20504;-62
2022/07/14 08:17:39;;;;;;;6.97;1.70;;;23.40;58.50;;;;;;5009292;28;20045;-62
2022/07/14 08:20:07;;;;;;;4.93;1.58;;;23.40;58.30;;;;;;5031286;28;20038;-62
2022/07/14 08:22:34;;;;;;;4.75;1.23;;;23.40;58.30;;;;;;5010902;28;20079;-62
2022/07/14 08:24:59;;;;;;;5.47;1.40;;;23.40;58.40;;;;;;5010181;28;20041;-64
2022/07/14 08:27:26;;;;;;;3.92;1.42;;;23.40;58.50;;;;;;5025808;28;20046;-63
2022/07/14 08:29:53;;;;;;;5.57;1.17;;;23.40;58.50;;;;;;5031226;28;20076;-63
2022/07/14 08:32:39;;;;;;;3.08;1.40;;;23.40;58.40;;;;;;5030065;28;20041;-62
2022/07/14 08:35:07;;;;;;;5.10;1.40;;;23.40;58.00;;;;;;5030291;28;20128;-62
2022/07/14 08:37:34;;;;;;;8.57;1.40;;;23.40;58.10;;;;;;5030273;28;20706;-61
2022/07/14 08:40:00;;;;;;;4.30;1.45;;;23.40;58.10;;;;;;5029765;28;20094;-62
2022/07/14 08:42:29;;;;;;;4.28;1.30;;;23.40;58.00;;;;;;5028509;28;20044;-63
2022/07/14 08:44:55;;;;;;;7.05;1.55;;;23.40;58.10;;;;;;5024465;28;20053;-63
2022/07/14 08:47:21;;;;;;;3.10;1.52;;;23.40;58.10;;;;;;5026509;28;20075;-61
2022/07/14 08:49:47;;;;;;;4.88;1.65;;;23.40;58.10;;;;;;5010494;28;20045;-62
2022/07/14 08:52:16;;;;;;;7.90;1.95;;;23.40;58.10;;;;;;5029562;28;20460;-64
2022/07/14 08:54:46;;;;;;;5.95;1.50;;;23.40;58.10;;;;;;5027856;28;20059;-63
2022/07/14 08:57:12;;;;;;;5.93;1.90;;;23.40;58.10;;;;;;4988520;28;20080;-64
2022/07/14 08:59:38;;;;;;;3.95;1.50;;;23.40;58.10;;;;;;5009976;28;20636;-63
2022/07/14 09:02:04;;;;;;;5.57;2.10;;;23.40;58.10;;;;;;5011130;28;20051;-62
2022/07/14 09:04:30;;;;;;;4.30;1.40;;;23.40;58.10;;;;;;5028374;28;20725;-62
2022/07/14 09:06:57;;;;;;;3.55;1.63;;;23.40;58.00;;;;;;5010375;28;20048;-61
2022/07/14 09:09:30;;;;;;;4.45;1.20;;;23.40;58.00;;;;;;5029836;28;20570;-61
2022/07/14 09:12:06;;;;;;;3.25;1.27;;;23.40;58.00;;;;;;5026330;28;20038;-61
2022/07/14 09:17:27;;;;;;;3.55;1.25;;;23.40;57.90;;;;;;5026197;28;20631;-61
2022/07/14 09:20:04;;;;;;;3.10;1.38;;;23.40;57.90;;;;;;5028959;28;20037;-61
2022/07/14 09:22:31;;;;;;;4.60;1.55;;;23.40;58.00;;;;;;5025997;28;20037;-62
2022/07/14 09:24:57;;;;;;;3.88;1.20;;;23.40;57.90;;;;;;5028236;28;20111;-61
2022/07/14 09:27:22;;;;;;;3.95;1.02;;;23.40;57.90;;;;;;5009341;28;20037;-62
2022/07/14 09:29:55;;;;;;;3.25;1.40;;;23.40;57.80;;;;;;5027372;28;20033;-61
2022/07/14 09:32:42;;;;;;;2.30;1.02;;;23.40;57.80;;;;;;5027670;28;20037;-61
2022/07/14 09:35:13;;;;;;;3.40;1.35;;;23.40;57.70;;;;;;5025282;28;20041;-61
2022/07/14 09:37:39;;;;;;;2.17;1.08;;;23.40;57.70;;;;;;5007745;28;20037;-61
2022/07/14 09:40:10;;;;;;;2.97;1.13;;;23.40;57.70;;;;;;5028951;28;20041;-61
2022/07/14 09:42:57;;;;;;;2.25;0.90;;;23.40;57.60;;;;;;5025083;28;20033;-61
2022/07/14 09:45:26;;;;;;;3.25;1.17;;;23.40;57.50;;;;;;5027847;28;20048;-61
2022/07/14 09:48:08;;;;;;;4.18;1.10;;;23.40;57.60;;;;;;5029209;28;20080;-61
2022/07/14 09:50:39;;;;;;;2.58;1.27;;;23.40;57.60;;;;;;5027886;28;20037;-61
2022/07/14 09:53:15;;;;;;;2.17;1.00;;;23.40;57.50;;;;;;5025899;28;20076;-62
2022/07/14 09:55:56;;;;;;;2.50;1.00;;;23.40;57.50;;;;;;5025866;28;20041;-61
2022/07/14 09:58:23;;;;;;;;;;;23.50;57.40;;;;;;5025702;28;20052;-61
2022/07/14 10:01:09;;;;;;;2.42;0.90;;;23.40;57.30;;;;;;5027324;28;19947;-60
2022/07/14 10:03:36;;;;;;;1.95;0.75;;;23.40;57.50;;;;;;5005315;28;20049;-61
2022/07/14 10:06:03;;;;;;;2.30;0.88;;;23.40;57.40;;;;;;5025557;28;20030;-62
2022/07/14 10:08:31;;;;;;;2.15;1.17;;;23.40;57.20;;;;;;5007204;28;20046;-61
2022/07/14 10:10:59;;;;;;;4.30;0.95;;;23.40;57.00;;;;;;5025709;28;20033;-61
2022/07/14 10:13:25;;;;;;;2.13;0.80;;;23.40;57.00;;;;;;5026454;28;20052;-60
2022/07/14 10:15:56;;;;;;;2.95;0.77;;;23.40;56.90;;;;;;5025561;28;20049;-61
2022/07/14 10:18:23;;;;;;;4.13;1.17;;;23.40;56.70;;;;;;5027171;28;20045;-61
2022/07/14 10:20:55;;;;;;;8.15;1.23;;;23.40;56.90;;;;;;5005449;28;20046;-61
2022/07/14 10:23:21;;;;;;;1.70;0.93;;;23.40;56.90;;;;;;5008692;28;20128;-61
2022/07/14 10:25:49;;;;;;;3.70;1.13;;;23.50;57.00;;;;;;5027645;28;20496;-61
2022/07/14 10:28:16;;;;;;;3.38;1.17;;;23.50;57.00;;;;;;5026455;28;20168;-61
2022/07/14 10:31:07;;;;;;;3.97;1.05;;;23.50;57.00;;;;;;5029050;28;20045;-61
2022/07/14 10:33:44;;;;;;;2.67;0.80;;;23.50;57.00;;;;;;5025609;28;20091;-62
2022/07/14 10:36:14;;;;;;;8.52;1.48;;;23.50;57.00;;;;;;5026479;28;20098;-61
2022/07/14 10:39:17;;;;;;;4.13;0.88;;;23.50;57.00;;;;;;5011960;28;20091;-61
2022/07/14 10:41:58;;;;;;;1.92;0.70;;;23.50;57.00;;;;;;5025784;28;20037;-61
2022/07/14 10:44:34;;;;;;;3.47;0.90;;;23.50;57.10;;;;;;5005628;28;20076;-60
2022/07/14 10:47:08;;;;;;;2.30;0.90;;;23.50;57.20;;;;;;5024578;28;20045;-62
2022/07/14 10:50:02;;;;;;;4.15;0.82;;;23.50;57.00;;;;;;5009322;28;20048;-62
2022/07/14 10:52:29;;;;;;;1.98;0.60;;;23.50;56.90;;;;;;5028493;28;20041;-62
2022/07/14 10:55:35;;;;;;;3.03;0.95;;;23.50;57.00;;;;;;5027082;28;20568;-63
2022/07/14 11:00:44;;;;;;;2.20;0.70;;;23.40;57.00;;;;;;4969774;28;20105;-62
2022/07/14 11:03:43;;;;;;;1.20;0.75;;;23.40;56.90;;;;;;5000818;28;20462;-63
2022/07/14 11:06:09;;;;;;;4.43;0.82;;;23.40;57.00;;;;;;5032211;28;20481;-61
2022/07/14 11:08:43;;;;;;;3.17;0.75;;;23.40;56.90;;;;;;5032227;28;20048;-62
2022/07/14 11:11:19;;;;;;;4.63;1.00;;;23.40;57.00;;;;;;5032534;28;20061;-62
2022/07/14 11:14:00;;;;;;;3.22;0.85;;;23.40;57.00;;;;;;5030642;28;20587;-62
2022/07/14 11:16:59;;;;;;;4.00;1.08;;;23.40;57.00;;;;;;5031386;28;20043;-62
2022/07/14 11:19:37;;;;;;;1.95;0.75;;;23.40;57.10;;;;;;4986518;28;20140;-62
2022/07/14 11:22:17;;;;;;;2.13;0.82;;;23.40;57.00;;;;;;5031294;28;20055;-61
2022/07/14 11:24:46;;;;;;;2.03;0.80;;;23.40;57.10;;;;;;5033705;28;20051;-62
2022/07/14 11:27:22;;;;;;;1.83;0.70;;;23.40;57.10;;;;;;5031685;28;20095;-62
2022/07/14 11:29:48;;;;;;;2.58;0.90;;;23.40;57.20;;;;;;5030433;28;20054;-62
2022/07/14 11:32:34;;;;;;;2.28;0.60;;;23.40;57.10;;;;;;5031219;28;20558;-61
2022/07/14 11:38:22;;;;;;;1.67;0.60;;;23.40;57.20;;;;;;5013215;28;20053;-61
2022/07/14 11:40:50;;;;;;;4.30;0.85;;;23.50;57.30;;;;;;5028066;28;20056;-61
2022/07/14 11:43:28;;;;;;;1.80;0.60;;;23.40;57.40;;;;;;5027949;28;20064;-62
2022/07/14 11:45:59;;;;;;;1.33;0.57;;;23.40;57.60;;;;;;5028649;28;20041;-61
2022/07/14 11:48:30;;;;;;;1.60;0.80;;;23.50;57.60;;;;;;5012851;28;20128;-61
2022/07/14 11:51:06;;;;;;;3.45;0.75;;;23.50;57.70;;;;;;5030001;28;20052;-62
2022/07/14 11:53:32;;;;;;;2.97;0.80;;;23.40;57.70;;;;;;5028159;28;20043;-62
2022/07/14 11:56:00;;;;;;;1.42;0.57;;;23.40;57.80;;;;;;5009712;28;20045;-61
2022/07/14 11:58:28;;;;;;;2.17;0.68;;;23.50;58.50;;;;;;5030508;28;20079;-62
2022/07/14 12:00:59;;;;;;;2.72;0.45;;;23.40;57.70;;;;;;5029253;28;20413;-61
2022/07/14 12:03:25;;;;;;;1.33;0.60;;;23.50;57.70;;;;;;5028976;28;20508;-61
2022/07/14 12:05:57;;;;;;;2.05;0.90;;;23.40;57.70;;;;;;5026100;28;20037;-62
2022/07/14 12:08:27;;;;;;;3.42;0.70;;;23.40;57.50;;;;;;5025295;28;20611;-61
2022/07/14 12:10:53;;;;;;;;;;;23.50;57.00;;;;;;5029846;28;20087;-61
2022/07/14 12:13:20;;;;;;;2.28;0.60;;;23.40;56.90;;;;;;5029466;28;20671;-61
2022/07/14 12:15:47;;;;;;;3.60;0.80;;;23.40;57.10;;;;;;5007630;28;20517;-62
2022/07/14 12:18:13;;;;;;;1.48;0.80;;;23.40;56.90;;;;;;5028251;28;20037;-61
2022/07/14 12:20:48;;;;;;;5.72;2.35;;;23.40;56.80;;;;;;5028177;28;20033;-62
2022/07/14 12:23:15;;;;;;;15.70;4.90;;;23.40;56.50;;;;;;5028349;28;20041;-61
2022/07/14 12:25:46;;;;;;;16.48;5.30;;;23.40;56.40;;;;;;5029290;28;20530;-62
2022/07/14 12:28:17;;;;;;;21.25;7.35;;;23.50;56.40;;;;;;5026757;28;20116;-61
2022/07/14 12:30:47;;;;;;;;;;;23.50;56.50;;;;;;5008034;28;20064;-61
2022/07/14 12:33:25;;;;;;;21.60;6.88;;;23.40;56.40;;;;;;5029388;28;19921;-61
2022/07/14 12:35:55;;;;;;;20.25;5.90;;;23.40;56.70;;;;;;5028367;28;20052;-61
2022/07/14 12:38:22;;;;;;;16.17;4.97;;;23.40;56.70;;;;;;5027725;28;20060;-61
2022/07/14 12:40:54;;;;;;;19.73;5.03;;;23.50;56.60;;;;;;5027007;28;20045;-62
2022/07/14 12:43:21;;;;;;;10.23;4.07;;;23.50;56.70;;;;;;5026263;28;20056;-61
2022/07/14 12:46:08;;;;;;;10.60;3.60;;;23.40;56.60;;;;;;5029327;28;20406;-62
2022/07/14 12:48:58;;;;;;;8.30;3.13;;;23.40;56.80;;;;;;5011939;28;20107;-62
2022/07/14 12:51:36;;;;;;;11.43;3.17;;;23.50;56.40;;;;;;5019514;28;20921;-61
2022/07/14 12:54:08;;;;;;;7.43;2.90;;;23.40;56.40;;;;;;5029630;28;20103;-62
2022/07/14 12:56:53;;;;;;;9.55;2.35;;;23.50;56.50;;;;;;5025192;28;20056;-61
2022/07/14 12:59:21;;;;;;;5.43;1.85;;;23.50;56.30;;;;;;5025396;28;20042;-62
2022/07/14 13:01:50;;;;;;;3.42;1.50;;;23.50;56.20;;;;;;5029289;28;20045;-61
2022/07/14 13:04:36;;;;;;;4.47;1.80;;;23.50;56.00;;;;;;5029752;28;20516;-61
2022/07/14 13:07:24;;;;;;;3.25;1.10;;;23.50;55.70;;;;;;5029365;28;20825;-61
2022/07/14 13:10:15;;;;;;;5.93;1.42;;;23.50;55.00;;;;;;4991649;28;20047;-62
2022/07/14 13:12:46;;;;;;;5.85;1.63;;;23.50;54.80;;;;;;5030862;28;20040;-62